Terminal Aerodrome Forecast
Issued by NWS

Home | Current Version | Previous Version | Text Only | Print | Product List | Glossary On
Versions: 1 2 3 4 5 6 7 8 9 10 11 12
000
FTUS42 TJSJ 162340
TAFJMZ
TAF
TJMZ 162340Z 1700/1724 VRB05KT P6SM -SHRA SCT040 BKN080
     FM171500 27006KT P6SM VCSH SCT035 SCT050
     FM171800 23006KT P6SM -SHRA VCTS SCT035CB SCT080 BKN120
      AMD NOT SKED=

USA.gov is the U.S. government's official web portal to all federal, state and local government web resources and services.